sensor_id;sensor_type;location;lat;lon;timestamp;temperature;humidity
12907;DHT22;6521;50.498;8.474;2022-08-01T00:01:52;20.79;69.11
12907;DHT22;6521;50.498;8.474;2022-08-01T00:04:23;20.75;69.29
12907;DHT22;6521;50.498;8.474;2022-08-01T00:06:53;20.73;69.42
12907;DHT22;6521;50.498;8.474;2022-08-01T00:09:24;20.72;69.53
12907;DHT22;6521;50.498;8.474;2022-08-01T00:11:55;20.72;69.57
12907;DHT22;6521;50.498;8.474;2022-08-01T00:14:26;20.68;69.76
12907;DHT22;6521;50.498;8.474;2022-08-01T00:16:57;20.69;69.78
12907;DHT22;6521;50.498;8.474;2022-08-01T00:19:28;20.69;69.90
12907;DHT22;6521;50.498;8.474;2022-08-01T00:21:59;20.71;70.02
12907;DHT22;6521;50.498;8.474;2022-08-01T00:24:29;20.72;70.01
12907;DHT22;6521;50.498;8.474;2022-08-01T00:27:00;20.75;69.98
12907;DHT22;6521;50.498;8.474;2022-08-01T00:29:30;20.76;69.86
12907;DHT22;6521;50.498;8.474;2022-08-01T00:32:01;20.72;70.01
12907;DHT22;6521;50.498;8.474;2022-08-01T00:34:32;20.72;70.13
12907;DHT22;6521;50.498;8.474;2022-08-01T00:37:02;20.73;70.24
12907;DHT22;6521;50.498;8.474;2022-08-01T00:39:33;20.72;70.17
12907;DHT22;6521;50.498;8.474;2022-08-01T00:42:07;20.73;70.19
12907;DHT22;6521;50.498;8.474;2022-08-01T00:44:39;20.75;70.16
12907;DHT22;6521;50.498;8.474;2022-08-01T00:47:10;20.73;70.16
12907;DHT22;6521;50.498;8.474;2022-08-01T00:49:41;20.71;70.38
12907;DHT22;6521;50.498;8.474;2022-08-01T00:52:11;20.66;70.46
12907;DHT22;6521;50.498;8.474;2022-08-01T00:54:43;20.71;70.39
12907;DHT22;6521;50.498;8.474;2022-08-01T00:57:14;20.65;70.48
12907;DHT22;6521;50.498;8.474;2022-08-01T00:59:44;20.55;70.72
12907;DHT22;6521;50.498;8.474;2022-08-01T01:02:15;20.49;71.08
12907;DHT22;6521;50.498;8.474;2022-08-01T01:04:46;20.48;71.11
12907;DHT22;6521;50.498;8.474;2022-08-01T01:07:22;20.49;71.16
12907;DHT22;6521;50.498;8.474;2022-08-01T01:10:02;20.49;71.17
12907;DHT22;6521;50.498;8.474;2022-08-01T01:12:41;20.49;71.16
12907;DHT22;6521;50.498;8.474;2022-08-01T01:15:33;20.53;71.28
12907;DHT22;6521;50.498;8.474;2022-08-01T01:18:13;20.55;71.17
12907;DHT22;6521;50.498;8.474;2022-08-01T01:20:54;20.52;71.33
12907;DHT22;6521;50.498;8.474;2022-08-01T01:27:02;20.48;71.65
12907;DHT22;6521;50.498;8.474;2022-08-01T01:29:40;20.42;71.98
12907;DHT22;6521;50.498;8.474;2022-08-01T01:32:19;20.42;72.05
12907;DHT22;6521;50.498;8.474;2022-08-01T01:34:51;20.44;72.18
12907;DHT22;6521;50.498;8.474;2022-08-01T01:37:25;20.39;72.34
12907;DHT22;6521;50.498;8.474;2022-08-01T01:39:58;20.37;72.49
12907;DHT22;6521;50.498;8.474;2022-08-01T01:42:31;20.39;72.42
12907;DHT22;6521;50.498;8.474;2022-08-01T01:45:04;20.44;72.48
12907;DHT22;6521;50.498;8.474;2022-08-01T01:47:37;20.38;72.79
12907;DHT22;6521;50.498;8.474;2022-08-01T01:50:11;20.39;73.07
12907;DHT22;6521;50.498;8.474;2022-08-01T01:52:43;20.35;73.46
12907;DHT22;6521;50.498;8.474;2022-08-01T01:55:15;20.35;73.55
12907;DHT22;6521;50.498;8.474;2022-08-01T01:57:47;20.35;73.66
12907;DHT22;6521;50.498;8.474;2022-08-01T02:00:18;20.37;73.66
12907;DHT22;6521;50.498;8.474;2022-08-01T02:02:50;20.34;73.73
12907;DHT22;6521;50.498;8.474;2022-08-01T02:05:22;20.32;73.86
12907;DHT22;6521;50.498;8.474;2022-08-01T02:07:55;20.29;74.02
12907;DHT22;6521;50.498;8.474;2022-08-01T02:10:27;20.27;74.19
12907;DHT22;6521;50.498;8.474;2022-08-01T02:13:03;20.27;74.42
12907;DHT22;6521;50.498;8.474;2022-08-01T02:15:36;20.28;74.23
12907;DHT22;6521;50.498;8.474;2022-08-01T02:18:08;20.27;74.10
12907;DHT22;6521;50.498;8.474;2022-08-01T02:20:42;20.22;74.08
12907;DHT22;6521;50.498;8.474;2022-08-01T02:23:12;20.22;74.02
12907;DHT22;6521;50.498;8.474;2022-08-01T02:25:46;20.25;73.94
12907;DHT22;6521;50.498;8.474;2022-08-01T02:28:22;20.25;73.61
12907;DHT22;6521;50.498;8.474;2022-08-01T02:31:02;20.18;73.92
12907;DHT22;6521;50.498;8.474;2022-08-01T02:33:38;20.17;73.93
12907;DHT22;6521;50.498;8.474;2022-08-01T02:36:11;20.20;73.63
12907;DHT22;6521;50.498;8.474;2022-08-01T02:38:44;20.14;73.56
12907;DHT22;6521;50.498;8.474;2022-08-01T02:41:20;20.17;73.34
12907;DHT22;6521;50.498;8.474;2022-08-01T02:43:53;20.11;73.42
12907;DHT22;6521;50.498;8.474;2022-08-01T02:46:34;20.08;73.45
12907;DHT22;6521;50.498;8.474;2022-08-01T02:49:07;19.98;73.67
12907;DHT22;6521;50.498;8.474;2022-08-01T02:51:40;19.98;73.76
12907;DHT22;6521;50.498;8.474;2022-08-01T02:54:12;19.96;73.73
12907;DHT22;6521;50.498;8.474;2022-08-01T02:56:44;19.96;73.59
12907;DHT22;6521;50.498;8.474;2022-08-01T02:59:18;19.93;73.74
12907;DHT22;6521;50.498;8.474;2022-08-01T03:01:52;19.94;73.65
12907;DHT22;6521;50.498;8.474;2022-08-01T03:04:24;19.90;73.86
12907;DHT22;6521;50.498;8.474;2022-08-01T03:06:56;19.88;73.82
12907;DHT22;6521;50.498;8.474;2022-08-01T03:09:31;19.87;74.01
12907;DHT22;6521;50.498;8.474;2022-08-01T03:12:04;19.84;74.15
12907;DHT22;6521;50.498;8.474;2022-08-01T03:14:38;19.84;74.16
12907;DHT22;6521;50.498;8.474;2022-08-01T03:17:10;19.88;74.02
12907;DHT22;6521;50.498;8.474;2022-08-01T03:19:45;19.86;74.04
12907;DHT22;6521;50.498;8.474;2022-08-01T03:22:16;19.88;73.93
12907;DHT22;6521;50.498;8.474;2022-08-01T03:24:52;19.86;73.95
12907;DHT22;6521;50.498;8.474;2022-08-01T03:27:24;19.90;73.88
12907;DHT22;6521;50.498;8.474;2022-08-01T03:29:57;19.84;74.01
12907;DHT22;6521;50.498;8.474;2022-08-01T03:32:29;19.84;74.04
12907;DHT22;6521;50.498;8.474;2022-08-01T03:35:00;19.83;74.19
12907;DHT22;6521;50.498;8.474;2022-08-01T03:40:22;19.74;74.55
12907;DHT22;6521;50.498;8.474;2022-08-01T03:42:58;19.80;74.32
12907;DHT22;6521;50.498;8.474;2022-08-01T03:45:31;19.77;74.43
12907;DHT22;6521;50.498;8.474;2022-08-01T03:48:14;19.79;74.45
12907;DHT22;6521;50.498;8.474;2022-08-01T03:50:48;19.81;74.54
12907;DHT22;6521;50.498;8.474;2022-08-01T03:53:23;19.79;74.65
12907;DHT22;6521;50.498;8.474;2022-08-01T03:55:56;19.79;74.70
12907;DHT22;6521;50.498;8.474;2022-08-01T03:58:29;19.77;74.75
12907;DHT22;6521;50.498;8.474;2022-08-01T04:01:00;19.74;75.00
12907;DHT22;6521;50.498;8.474;2022-08-01T04:03:32;19.79;75.00
12907;DHT22;6521;50.498;8.474;2022-08-01T04:06:04;19.79;75.10
12907;DHT22;6521;50.498;8.474;2022-08-01T04:08:36;19.79;75.15
12907;DHT22;6521;50.498;8.474;2022-08-01T04:11:08;19.80;75.05
12907;DHT22;6521;50.498;8.474;2022-08-01T04:13:39;19.84;75.07
12907;DHT22;6521;50.498;8.474;2022-08-01T04:16:10;19.77;75.38
12907;DHT22;6521;50.498;8.474;2022-08-01T04:18:40;19.77;75.43
12907;DHT22;6521;50.498;8.474;2022-08-01T04:21:12;19.79;75.47
12907;DHT22;6521;50.498;8.474;2022-08-01T04:23:44;19.74;75.72
12907;DHT22;6521;50.498;8.474;2022-08-01T04:26:17;19.69;75.90
12907;DHT22;6521;50.498;8.474;2022-08-01T04:28:49;19.70;76.01
12907;DHT22;6521;50.498;8.474;2022-08-01T04:31:22;19.73;75.87
12907;DHT22;6521;50.498;8.474;2022-08-01T04:33:53;19.69;76.00
12907;DHT22;6521;50.498;8.474;2022-08-01T04:36:26;19.74;75.90
12907;DHT22;6521;50.498;8.474;2022-08-01T04:39:00;19.71;76.14
12907;DHT22;6521;50.498;8.474;2022-08-01T04:41:32;19.79;75.97
12907;DHT22;6521;50.498;8.474;2022-08-01T04:44:03;19.83;75.78
12907;DHT22;6521;50.498;8.474;2022-08-01T04:46:35;19.88;75.72
12907;DHT22;6521;50.498;8.474;2022-08-01T04:49:08;19.90;75.70
12907;DHT22;6521;50.498;8.474;2022-08-01T04:51:55;19.97;75.33
12907;DHT22;6521;50.498;8.474;2022-08-01T04:54:31;19.98;75.12
12907;DHT22;6521;50.498;8.474;2022-08-01T04:57:05;19.96;75.17
12907;DHT22;6521;50.498;8.474;2022-08-01T04:59:38;19.93;75.42
12907;DHT22;6521;50.498;8.474;2022-08-01T05:02:14;19.98;75.44
12907;DHT22;6521;50.498;8.474;2022-08-01T05:04:45;19.96;76.40
12907;DHT22;6521;50.498;8.474;2022-08-01T05:07:16;20.01;76.63
12907;DHT22;6521;50.498;8.474;2022-08-01T05:09:47;19.94;77.31
12907;DHT22;6521;50.498;8.474;2022-08-01T05:12:17;19.97;77.52
12907;DHT22;6521;50.498;8.474;2022-08-01T05:14:48;19.94;77.26
12907;DHT22;6521;50.498;8.474;2022-08-01T05:17:19;19.90;77.37
12907;DHT22;6521;50.498;8.474;2022-08-01T05:19:49;19.87;78.03
12907;DHT22;6521;50.498;8.474;2022-08-01T05:22:20;19.77;79.00
12907;DHT22;6521;50.498;8.474;2022-08-01T05:24:51;19.79;79.37
12907;DHT22;6521;50.498;8.474;2022-08-01T05:27:22;19.66;80.30
12907;DHT22;6521;50.498;8.474;2022-08-01T05:29:53;19.58;81.33
12907;DHT22;6521;50.498;8.474;2022-08-01T05:32:24;19.52;81.86
12907;DHT22;6521;50.498;8.474;2022-08-01T05:34:54;19.43;82.64
12907;DHT22;6521;50.498;8.474;2022-08-01T05:37:25;19.45;83.03
12907;DHT22;6521;50.498;8.474;2022-08-01T05:39:56;19.43;83.30
12907;DHT22;6521;50.498;8.474;2022-08-01T05:42:26;19.43;83.69
12907;DHT22;6521;50.498;8.474;2022-08-01T05:44:57;19.43;83.69
12907;DHT22;6521;50.498;8.474;2022-08-01T05:47:28;19.40;83.83
12907;DHT22;6521;50.498;8.474;2022-08-01T05:49:58;19.46;83.70
12907;DHT22;6521;50.498;8.474;2022-08-01T05:52:29;19.49;83.97
12907;DHT22;6521;50.498;8.474;2022-08-01T05:55:01;19.55;83.69
12907;DHT22;6521;50.498;8.474;2022-08-01T05:57:31;19.58;83.44
12907;DHT22;6521;50.498;8.474;2022-08-01T06:00:02;19.66;83.32
12907;DHT22;6521;50.498;8.474;2022-08-01T06:02:42;19.62;82.96
12907;DHT22;6521;50.498;8.474;2022-08-01T06:05:13;19.62;83.17
12907;DHT22;6521;50.498;8.474;2022-08-01T06:07:44;19.59;83.32
12907;DHT22;6521;50.498;8.474;2022-08-01T06:10:15;19.62;83.66
12907;DHT22;6521;50.498;8.474;2022-08-01T06:12:45;19.69;83.42
12907;DHT22;6521;50.498;8.474;2022-08-01T06:15:16;19.74;83.40
12907;DHT22;6521;50.498;8.474;2022-08-01T06:17:46;19.79;83.44
12907;DHT22;6521;50.498;8.474;2022-08-01T06:20:17;19.83;83.46
12907;DHT22;6521;50.498;8.474;2022-08-01T06:22:48;19.86;83.25
12907;DHT22;6521;50.498;8.474;2022-08-01T06:25:18;19.90;82.46
12907;DHT22;6521;50.498;8.474;2022-08-01T06:27:50;19.84;82.47
12907;DHT22;6521;50.498;8.474;2022-08-01T06:30:21;19.84;82.31
12907;DHT22;6521;50.498;8.474;2022-08-01T06:32:52;19.83;82.68
12907;DHT22;6521;50.498;8.474;2022-08-01T06:35:22;19.83;82.84
12907;DHT22;6521;50.498;8.474;2022-08-01T06:37:53;19.83;82.74
12907;DHT22;6521;50.498;8.474;2022-08-01T06:40:24;19.86;82.67
12907;DHT22;6521;50.498;8.474;2022-08-01T06:42:55;19.91;82.11
12907;DHT22;6521;50.498;8.474;2022-08-01T06:45:26;19.83;81.97
12907;DHT22;6521;50.498;8.474;2022-08-01T06:47:57;19.84;81.87
12907;DHT22;6521;50.498;8.474;2022-08-01T06:50:28;19.86;81.57
12907;DHT22;6521;50.498;8.474;2022-08-01T06:52:58;19.87;82.06
12907;DHT22;6521;50.498;8.474;2022-08-01T06:55:29;19.93;81.62
12907;DHT22;6521;50.498;8.474;2022-08-01T06:57:59;20.01;81.26
12907;DHT22;6521;50.498;8.474;2022-08-01T07:00:30;20.08;81.21
12907;DHT22;6521;50.498;8.474;2022-08-01T07:03:01;20.17;81.14
12907;DHT22;6521;50.498;8.474;2022-08-01T07:05:32;20.29;80.03
12907;DHT22;6521;50.498;8.474;2022-08-01T07:08:03;20.35;79.82
12907;DHT22;6521;50.498;8.474;2022-08-01T07:10:33;20.41;79.84
12907;DHT22;6521;50.498;8.474;2022-08-01T07:13:04;20.55;79.29
12907;DHT22;6521;50.498;8.474;2022-08-01T07:15:34;20.65;78.94
12907;DHT22;6521;50.498;8.474;2022-08-01T07:18:05;20.79;78.16
12907;DHT22;6521;50.498;8.474;2022-08-01T07:20:37;20.79;77.97
12907;DHT22;6521;50.498;8.474;2022-08-01T07:23:07;20.86;77.47
12907;DHT22;6521;50.498;8.474;2022-08-01T07:25:38;21.03;77.66
12907;DHT22;6521;50.498;8.474;2022-08-01T07:28:09;21.10;76.89
12907;DHT22;6521;50.498;8.474;2022-08-01T07:30:40;21.20;76.47
12907;DHT22;6521;50.498;8.474;2022-08-01T07:33:12;21.20;75.69
12907;DHT22;6521;50.498;8.474;2022-08-01T07:35:43;21.08;76.00
12907;DHT22;6521;50.498;8.474;2022-08-01T07:38:13;21.08;76.30
12907;DHT22;6521;50.498;8.474;2022-08-01T07:40:47;21.03;76.57
12907;DHT22;6521;50.498;8.474;2022-08-01T07:43:17;21.06;76.60
12907;DHT22;6521;50.498;8.474;2022-08-01T07:45:48;21.11;76.27
12907;DHT22;6521;50.498;8.474;2022-08-01T07:48:19;21.14;76.12
12907;DHT22;6521;50.498;8.474;2022-08-01T07:50:54;21.19;76.34
12907;DHT22;6521;50.498;8.474;2022-08-01T07:53:25;21.27;75.54
12907;DHT22;6521;50.498;8.474;2022-08-01T07:55:56;21.35;74.85
12907;DHT22;6521;50.498;8.474;2022-08-01T07:58:26;21.34;75.16
12907;DHT22;6521;50.498;8.474;2022-08-01T08:00:57;21.40;74.90
12907;DHT22;6521;50.498;8.474;2022-08-01T08:03:27;21.44;73.67
12907;DHT22;6521;50.498;8.474;2022-08-01T08:05:58;21.51;73.31
12907;DHT22;6521;50.498;8.474;2022-08-01T08:08:29;21.57;71.80
12907;DHT22;6521;50.498;8.474;2022-08-01T08:11:00;21.55;72.12
12907;DHT22;6521;50.498;8.474;2022-08-01T08:13:30;21.68;71.70
12907;DHT22;6521;50.498;8.474;2022-08-01T08:16:01;21.74;71.22
12907;DHT22;6521;50.498;8.474;2022-08-01T08:18:32;21.85;71.16
12907;DHT22;6521;50.498;8.474;2022-08-01T08:21:02;21.96;71.88
12907;DHT22;6521;50.498;8.474;2022-08-01T08:23:33;22.13;70.86
12907;DHT22;6521;50.498;8.474;2022-08-01T08:26:22;22.20;69.53
12907;DHT22;6521;50.498;8.474;2022-08-01T08:28:54;22.28;69.88
12907;DHT22;6521;50.498;8.474;2022-08-01T08:31:24;22.35;70.41
12907;DHT22;6521;50.498;8.474;2022-08-01T08:33:55;22.39;70.19
12907;DHT22;6521;50.498;8.474;2022-08-01T08:36:25;22.49;68.79
12907;DHT22;6521;50.498;8.474;2022-08-01T08:38:56;22.57;68.01
12907;DHT22;6521;50.498;8.474;2022-08-01T08:41:29;22.90;66.67
12907;DHT22;6521;50.498;8.474;2022-08-01T08:44:02;23.05;64.84
12907;DHT22;6521;50.498;8.474;2022-08-01T08:46:33;22.95;64.25
12907;DHT22;6521;50.498;8.474;2022-08-01T08:49:11;23.11;64.33
12907;DHT22;6521;50.498;8.474;2022-08-01T08:51:43;23.32;64.72
12907;DHT22;6521;50.498;8.474;2022-08-01T08:54:20;23.63;63.57
12907;DHT22;6521;50.498;8.474;2022-08-01T08:56:53;23.90;60.98
12907;DHT22;6521;50.498;8.474;2022-08-01T08:59:24;23.81;61.27
12907;DHT22;6521;50.498;8.474;2022-08-01T09:01:56;23.69;60.73
12907;DHT22;6521;50.498;8.474;2022-08-01T09:04:27;23.50;60.63
12907;DHT22;6521;50.498;8.474;2022-08-01T09:06:58;23.48;62.13
12907;DHT22;6521;50.498;8.474;2022-08-01T09:09:28;23.46;60.95
12907;DHT22;6521;50.498;8.474;2022-08-01T09:12:00;23.71;60.94
12907;DHT22;6521;50.498;8.474;2022-08-01T09:14:31;24.06;59.45
12907;DHT22;6521;50.498;8.474;2022-08-01T09:17:05;24.48;59.31
12907;DHT22;6521;50.498;8.474;2022-08-01T09:19:50;24.73;56.27
12907;DHT22;6521;50.498;8.474;2022-08-01T09:22:23;25.02;56.36
12907;DHT22;6521;50.498;8.474;2022-08-01T09:25:03;25.30;55.96
12907;DHT22;6521;50.498;8.474;2022-08-01T09:27:35;25.53;55.39
12907;DHT22;6521;50.498;8.474;2022-08-01T09:32:55;26.28;52.61
12907;DHT22;6521;50.498;8.474;2022-08-01T09:35:28;26.61;50.49
12907;DHT22;6521;50.498;8.474;2022-08-01T09:38:20;27.14;48.92
12907;DHT22;6521;50.498;8.474;2022-08-01T09:40:56;27.12;49.14
12907;DHT22;6521;50.498;8.474;2022-08-01T09:43:30;27.15;48.41
12907;DHT22;6521;50.498;8.474;2022-08-01T09:46:08;26.67;49.33
12907;DHT22;6521;50.498;8.474;2022-08-01T09:51:35;25.82;53.05
12907;DHT22;6521;50.498;8.474;2022-08-01T09:54:06;25.78;53.66
12907;DHT22;6521;50.498;8.474;2022-08-01T09:56:39;26.13;52.17
12907;DHT22;6521;50.498;8.474;2022-08-01T09:59:10;26.42;51.97
12907;DHT22;6521;50.498;8.474;2022-08-01T10:01:44;26.92;49.81
12907;DHT22;6521;50.498;8.474;2022-08-01T10:04:19;27.25;47.89
12907;DHT22;6521;50.498;8.474;2022-08-01T10:06:50;27.90;47.30
12907;DHT22;6521;50.498;8.474;2022-08-01T10:09:34;28.54;46.21
12907;DHT22;6521;50.498;8.474;2022-08-01T10:12:06;28.33;45.93
12907;DHT22;6521;50.498;8.474;2022-08-01T10:14:38;28.48;45.66
12907;DHT22;6521;50.498;8.474;2022-08-01T10:17:12;28.89;45.01
12907;DHT22;6521;50.498;8.474;2022-08-01T10:19:44;29.26;43.84
12907;DHT22;6521;50.498;8.474;2022-08-01T10:22:16;29.15;43.14
12907;DHT22;6521;50.498;8.474;2022-08-01T10:24:48;29.37;43.60
12907;DHT22;6521;50.498;8.474;2022-08-01T10:27:21;29.73;41.70
12907;DHT22;6521;50.498;8.474;2022-08-01T10:29:58;30.13;39.78
12907;DHT22;6521;50.498;8.474;2022-08-01T10:32:38;30.32;41.35
12907;DHT22;6521;50.498;8.474;2022-08-01T10:35:10;30.29;40.46
12907;DHT22;6521;50.498;8.474;2022-08-01T10:37:48;30.28;40.44
12907;DHT22;6521;50.498;8.474;2022-08-01T10:40:22;30.36;40.92
12907;DHT22;6521;50.498;8.474;2022-08-01T10:42:53;30.23;39.68
12907;DHT22;6521;50.498;8.474;2022-08-01T10:45:25;30.37;40.26
12907;DHT22;6521;50.498;8.474;2022-08-01T10:50:52;30.86;38.79
12907;DHT22;6521;50.498;8.474;2022-08-01T10:53:25;30.37;39.54
12907;DHT22;6521;50.498;8.474;2022-08-01T10:58:32;28.94;42.29
12907;DHT22;6521;50.498;8.474;2022-08-01T11:07:07;28.75;42.74
12907;DHT22;6521;50.498;8.474;2022-08-01T11:09:42;28.45;42.86
12907;DHT22;6521;50.498;8.474;2022-08-01T11:12:17;28.27;43.92
12907;DHT22;6521;50.498;8.474;2022-08-01T11:20:08;28.49;43.08
12907;DHT22;6521;50.498;8.474;2022-08-01T11:28:17;28.74;40.78
12907;DHT22;6521;50.498;8.474;2022-08-01T11:36:18;30.60;37.91
12907;DHT22;6521;50.498;8.474;2022-08-01T11:41:31;30.43;38.21
12907;DHT22;6521;50.498;8.474;2022-08-01T11:49:48;28.99;41.00
12907;DHT22;6521;50.498;8.474;2022-08-01T11:52:29;28.94;40.51
12907;DHT22;6521;50.498;8.474;2022-08-01T11:57:32;28.27;40.80
12907;DHT22;6521;50.498;8.474;2022-08-01T12:00:16;28.04;41.88
12907;DHT22;6521;50.498;8.474;2022-08-01T12:03:05;28.44;41.90
12907;DHT22;6521;50.498;8.474;2022-08-01T12:05:36;29.34;40.16
12907;DHT22;6521;50.498;8.474;2022-08-01T12:08:09;29.75;38.64
12907;DHT22;6521;50.498;8.474;2022-08-01T12:10:40;30.33;37.86
12907;DHT22;6521;50.498;8.474;2022-08-01T12:13:11;30.74;37.63
12907;DHT22;6521;50.498;8.474;2022-08-01T12:15:42;31.22;37.42
12907;DHT22;6521;50.498;8.474;2022-08-01T12:18:13;31.45;35.48
12907;DHT22;6521;50.498;8.474;2022-08-01T12:20:45;31.66;35.80
12907;DHT22;6521;50.498;8.474;2022-08-01T12:23:16;31.06;36.75
12907;DHT22;6521;50.498;8.474;2022-08-01T12:25:51;31.06;36.54
12907;DHT22;6521;50.498;8.474;2022-08-01T12:28:22;31.43;34.83
12907;DHT22;6521;50.498;8.474;2022-08-01T12:30:53;31.12;36.19
12907;DHT22;6521;50.498;8.474;2022-08-01T12:33:23;30.62;36.85
12907;DHT22;6521;50.498;8.474;2022-08-01T12:35:54;30.50;37.12
12907;DHT22;6521;50.498;8.474;2022-08-01T12:38:25;30.59;36.27
12907;DHT22;6521;50.498;8.474;2022-08-01T12:40:57;30.60;36.71
12907;DHT22;6521;50.498;8.474;2022-08-01T12:43:31;30.59;35.83
12907;DHT22;6521;50.498;8.474;2022-08-01T12:46:02;30.49;37.83
12907;DHT22;6521;50.498;8.474;2022-08-01T12:48:33;30.35;37.74
12907;DHT22;6521;50.498;8.474;2022-08-01T12:51:04;30.28;37.73
12907;DHT22;6521;50.498;8.474;2022-08-01T12:53:34;29.60;39.65
12907;DHT22;6521;50.498;8.474;2022-08-01T12:56:05;29.57;39.20
12907;DHT22;6521;50.498;8.474;2022-08-01T12:58:36;29.46;40.17
12907;DHT22;6521;50.498;8.474;2022-08-01T13:01:08;29.50;40.29
12907;DHT22;6521;50.498;8.474;2022-08-01T13:03:39;29.44;40.28
12907;DHT22;6521;50.498;8.474;2022-08-01T13:06:14;29.57;40.01
12907;DHT22;6521;50.498;8.474;2022-08-01T13:08:45;29.73;40.04
12907;DHT22;6521;50.498;8.474;2022-08-01T13:11:16;29.77;39.37
12907;DHT22;6521;50.498;8.474;2022-08-01T13:13:51;30.09;38.44
12907;DHT22;6521;50.498;8.474;2022-08-01T13:16:25;30.04;37.62
12907;DHT22;6521;50.498;8.474;2022-08-01T13:18:56;29.58;38.07
12907;DHT22;6521;50.498;8.474;2022-08-01T13:21:30;29.30;39.23
12907;DHT22;6521;50.498;8.474;2022-08-01T13:24:04;29.20;39.64
12907;DHT22;6521;50.498;8.474;2022-08-01T13:26:44;28.98;39.95
12907;DHT22;6521;50.498;8.474;2022-08-01T13:29:20;28.80;39.59
12907;DHT22;6521;50.498;8.474;2022-08-01T13:31:51;28.85;40.01
12907;DHT22;6521;50.498;8.474;2022-08-01T13:34:32;28.89;39.88
12907;DHT22;6521;50.498;8.474;2022-08-01T13:37:03;29.06;39.81
12907;DHT22;6521;50.498;8.474;2022-08-01T13:39:38;28.96;39.41
12907;DHT22;6521;50.498;8.474;2022-08-01T13:42:13;28.74;40.46
12907;DHT22;6521;50.498;8.474;2022-08-01T13:44:44;28.94;39.94
12907;DHT22;6521;50.498;8.474;2022-08-01T13:47:16;29.00;40.29
12907;DHT22;6521;50.498;8.474;2022-08-01T13:49:50;28.96;40.03
12907;DHT22;6521;50.498;8.474;2022-08-01T13:52:20;28.96;39.73
12907;DHT22;6521;50.498;8.474;2022-08-01T13:54:51;28.80;40.29
12907;DHT22;6521;50.498;8.474;2022-08-01T13:57:22;28.76;40.19
12907;DHT22;6521;50.498;8.474;2022-08-01T13:59:52;29.00;39.22
12907;DHT22;6521;50.498;8.474;2022-08-01T14:02:23;29.20;39.09
12907;DHT22;6521;50.498;8.474;2022-08-01T14:04:54;29.02;39.59
12907;DHT22;6521;50.498;8.474;2022-08-01T14:07:25;29.09;38.83
12907;DHT22;6521;50.498;8.474;2022-08-01T14:09:56;29.22;38.60
12907;DHT22;6521;50.498;8.474;2022-08-01T14:12:27;29.31;37.44
12907;DHT22;6521;50.498;8.474;2022-08-01T14:14:58;29.47;38.93
12907;DHT22;6521;50.498;8.474;2022-08-01T14:17:28;29.67;37.68
12907;DHT22;6521;50.498;8.474;2022-08-01T14:19:59;29.97;37.17
12907;DHT22;6521;50.498;8.474;2022-08-01T14:22:29;29.88;36.67
12907;DHT22;6521;50.498;8.474;2022-08-01T14:25:00;29.53;38.13
12907;DHT22;6521;50.498;8.474;2022-08-01T14:27:31;29.65;37.57
12907;DHT22;6521;50.498;8.474;2022-08-01T14:30:04;29.40;38.23
12907;DHT22;6521;50.498;8.474;2022-08-01T14:32:34;29.53;38.81
12907;DHT22;6521;50.498;8.474;2022-08-01T14:35:05;29.44;37.68
12907;DHT22;6521;50.498;8.474;2022-08-01T14:37:36;29.34;37.72
12907;DHT22;6521;50.498;8.474;2022-08-01T14:40:08;29.33;38.13
12907;DHT22;6521;50.498;8.474;2022-08-01T14:42:40;29.37;38.34
12907;DHT22;6521;50.498;8.474;2022-08-01T14:45:12;29.70;37.44
12907;DHT22;6521;50.498;8.474;2022-08-01T14:47:43;29.77;37.07
12907;DHT22;6521;50.498;8.474;2022-08-01T14:50:15;29.91;36.33
12907;DHT22;6521;50.498;8.474;2022-08-01T14:52:46;29.89;36.34
12907;DHT22;6521;50.498;8.474;2022-08-01T14:55:17;29.95;36.48
12907;DHT22;6521;50.498;8.474;2022-08-01T14:57:48;29.98;36.79
12907;DHT22;6521;50.498;8.474;2022-08-01T15:00:18;29.94;36.79
12907;DHT22;6521;50.498;8.474;2022-08-01T15:02:50;29.97;37.03
12907;DHT22;6521;50.498;8.474;2022-08-01T15:05:21;30.00;37.13
12907;DHT22;6521;50.498;8.474;2022-08-01T15:07:51;30.06;36.75
12907;DHT22;6521;50.498;8.474;2022-08-01T15:10:22;29.89;36.29
12907;DHT22;6521;50.498;8.474;2022-08-01T15:12:53;29.84;36.64
12907;DHT22;6521;50.498;8.474;2022-08-01T15:15:23;29.36;37.77
12907;DHT22;6521;50.498;8.474;2022-08-01T15:17:55;29.05;38.72
12907;DHT22;6521;50.498;8.474;2022-08-01T15:20:26;28.76;39.62
12907;DHT22;6521;50.498;8.474;2022-08-01T15:22:57;28.41;40.70
12907;DHT22;6521;50.498;8.474;2022-08-01T15:25:28;28.03;40.95
12907;DHT22;6521;50.498;8.474;2022-08-01T15:27:59;27.76;41.95
12907;DHT22;6521;50.498;8.474;2022-08-01T15:30:30;27.70;42.11
12907;DHT22;6521;50.498;8.474;2022-08-01T15:33:01;27.60;42.45
12907;DHT22;6521;50.498;8.474;2022-08-01T15:35:32;27.46;42.82
12907;DHT22;6521;50.498;8.474;2022-08-01T15:38:03;27.35;42.72
12907;DHT22;6521;50.498;8.474;2022-08-01T15:40:33;27.21;43.22
12907;DHT22;6521;50.498;8.474;2022-08-01T15:43:04;27.16;42.59
12907;DHT22;6521;50.498;8.474;2022-08-01T15:45:35;27.10;43.12
12907;DHT22;6521;50.498;8.474;2022-08-01T15:48:05;27.10;43.19
12907;DHT22;6521;50.498;8.474;2022-08-01T15:50:36;27.01;43.97
12907;DHT22;6521;50.498;8.474;2022-08-01T15:53:08;27.00;43.83
12907;DHT22;6521;50.498;8.474;2022-08-01T15:55:39;27.11;43.76
12907;DHT22;6521;50.498;8.474;2022-08-01T15:58:10;27.07;43.12
12907;DHT22;6521;50.498;8.474;2022-08-01T16:00:41;27.12;43.31
12907;DHT22;6521;50.498;8.474;2022-08-01T16:03:12;27.12;43.17
12907;DHT22;6521;50.498;8.474;2022-08-01T16:05:43;27.15;43.22
12907;DHT22;6521;50.498;8.474;2022-08-01T16:08:14;27.14;43.75
12907;DHT22;6521;50.498;8.474;2022-08-01T16:10:44;27.10;44.29
12907;DHT22;6521;50.498;8.474;2022-08-01T16:13:16;27.25;43.79
12907;DHT22;6521;50.498;8.474;2022-08-01T16:15:46;27.22;43.19
12907;DHT22;6521;50.498;8.474;2022-08-01T16:18:17;27.15;43.53
12907;DHT22;6521;50.498;8.474;2022-08-01T16:20:48;27.27;42.92
12907;DHT22;6521;50.498;8.474;2022-08-01T16:23:18;27.48;41.63
12907;DHT22;6521;50.498;8.474;2022-08-01T16:25:49;27.53;41.26
12907;DHT22;6521;50.498;8.474;2022-08-01T16:28:20;27.58;41.32
12907;DHT22;6521;50.498;8.474;2022-08-01T16:30:51;27.66;41.67
12907;DHT22;6521;50.498;8.474;2022-08-01T16:33:22;27.80;41.76
12907;DHT22;6521;50.498;8.474;2022-08-01T16:35:53;27.83;41.01
12907;DHT22;6521;50.498;8.474;2022-08-01T16:38:23;27.80;41.60
12907;DHT22;6521;50.498;8.474;2022-08-01T16:40:54;27.80;41.83
12907;DHT22;6521;50.498;8.474;2022-08-01T16:43:25;27.79;42.49
12907;DHT22;6521;50.498;8.474;2022-08-01T16:45:57;27.85;42.38
12907;DHT22;6521;50.498;8.474;2022-08-01T16:48:28;27.99;41.59
12907;DHT22;6521;50.498;8.474;2022-08-01T16:50:59;27.97;41.47
12907;DHT22;6521;50.498;8.474;2022-08-01T16:53:30;27.92;41.69
12907;DHT22;6521;50.498;8.474;2022-08-01T16:56:01;27.93;41.50
12907;DHT22;6521;50.498;8.474;2022-08-01T16:58:31;27.87;40.95
12907;DHT22;6521;50.498;8.474;2022-08-01T17:01:02;27.71;41.76
12907;DHT22;6521;50.498;8.474;2022-08-01T17:03:33;27.77;41.52
12907;DHT22;6521;50.498;8.474;2022-08-01T17:06:03;27.46;42.49
12907;DHT22;6521;50.498;8.474;2022-08-01T17:08:34;27.38;42.79